createdAt,value
2023-06-11T00:01:58.434Z,95.88
2023-06-11T00:04:36.036Z,95.86
2023-06-11T00:07:11.962Z,95.21
2023-06-11T00:09:46.600Z,95.25
2023-06-11T00:12:21.016Z,95.55
2023-06-11T00:14:55.796Z,95.67
2023-06-11T00:17:30.527Z,94.75
2023-06-11T00:20:10.649Z,94.41
2023-06-11T00:22:46.467Z,93.97
2023-06-11T00:25:22.398Z,94.01
2023-06-11T00:27:56.952Z,94.00
2023-06-11T00:30:32.414Z,92.97
2023-06-11T00:33:06.810Z,93.04
2023-06-11T00:35:41.524Z,92.48
2023-06-11T00:38:20.574Z,92.15
2023-06-11T00:40:55.525Z,91.46
2023-06-11T00:43:32.104Z,91.51
2023-06-11T00:46:12.046Z,91.84
2023-06-11T00:48:46.788Z,92.03
2023-06-11T00:51:23.978Z,92.62
2023-06-11T00:53:59.771Z,92.56
2023-06-11T00:56:34.671Z,92.85
2023-06-11T00:59:09.837Z,93.20
2023-06-11T01:01:52.467Z,93.52
2023-06-11T01:04:30.636Z,93.49
2023-06-11T01:07:09.742Z,93.41
2023-06-11T01:09:47.634Z,93.17
2023-06-11T01:12:22.992Z,93.22
2023-06-11T01:14:57.368Z,92.50
2023-06-11T01:17:43.246Z,92.63
2023-06-11T01:20:26.509Z,92.56
2023-06-11T01:23:32.524Z,92.81
2023-06-11T01:26:19.479Z,92.43
2023-06-11T01:28:59.594Z,91.76
2023-06-11T01:31:38.903Z,91.69
2023-06-11T01:34:14.638Z,91.34
2023-06-11T01:36:49.619Z,91.30
2023-06-11T01:39:24.775Z,90.96
2023-06-11T01:42:00.104Z,91.28
2023-06-11T01:44:36.366Z,91.13
2023-06-11T01:47:10.916Z,91.36
2023-06-11T01:49:45.827Z,91.22
2023-06-11T01:52:20.375Z,91.64
2023-06-11T01:54:55.096Z,91.65
2023-06-11T01:57:29.418Z,91.67
2023-06-11T02:00:08.011Z,92.48
2023-06-11T02:02:50.721Z,91.64
2023-06-11T02:05:25.822Z,91.83
2023-06-11T02:08:00.556Z,91.34
2023-06-11T02:10:35.323Z,91.29
2023-06-11T02:13:09.694Z,91.32
2023-06-11T02:15:46.021Z,91.41
2023-06-11T02:18:20.348Z,91.68
2023-06-11T02:20:55.026Z,92.55
2023-06-11T02:23:31.083Z,91.58
2023-06-11T02:26:05.780Z,90.71
2023-06-11T02:28:40.264Z,90.91
2023-06-11T02:31:16.447Z,90.38
2023-06-11T02:33:50.881Z,90.57
2023-06-11T02:36:25.601Z,90.52
2023-06-11T02:39:00.177Z,91.10
2023-06-11T02:41:35.265Z,91.16
2023-06-11T02:44:09.762Z,91.32
2023-06-11T02:46:45.960Z,90.57
2023-06-11T02:49:20.328Z,90.22
2023-06-11T02:51:54.989Z,90.66
2023-06-11T02:54:29.367Z,91.33
2023-06-11T02:57:04.048Z,91.33
2023-06-11T02:59:38.459Z,92.31
2023-06-11T03:02:14.546Z,91.65
2023-06-11T03:04:48.884Z,91.27
2023-06-11T03:07:23.913Z,91.35
2023-06-11T03:09:58.266Z,91.55
2023-06-11T03:12:32.990Z,91.32
2023-06-11T03:15:09.067Z,91.31
2023-06-11T03:17:45.309Z,91.32
2023-06-11T03:20:19.858Z,91.14
2023-06-11T03:22:54.723Z,91.63
2023-06-11T03:25:29.139Z,91.73
2023-06-11T03:28:04.902Z,91.85
2023-06-11T03:30:39.820Z,91.87
2023-06-11T03:33:16.189Z,91.19
2023-06-11T03:35:50.753Z,91.08
2023-06-11T03:38:25.683Z,90.82
2023-06-11T03:41:00.502Z,91.03
2023-06-11T03:43:35.337Z,91.49
2023-06-11T03:46:09.687Z,91.41
2023-06-11T03:48:46.060Z,91.02
2023-06-11T03:51:20.795Z,91.68
2023-06-11T03:53:55.429Z,90.77
2023-06-11T03:56:29.773Z,90.65
2023-06-11T03:59:04.581Z,91.29
2023-06-11T04:01:38.999Z,91.80
2023-06-11T04:04:15.114Z,92.24
2023-06-11T04:06:49.669Z,92.45
2023-06-11T04:09:24.474Z,91.75
2023-06-11T04:11:59.188Z,91.57
2023-06-11T04:14:33.815Z,91.73
2023-06-11T04:17:08.426Z,91.50
2023-06-11T04:19:44.892Z,91.36
2023-06-11T04:22:19.760Z,91.51
2023-06-11T04:24:55.141Z,92.30
2023-06-11T04:27:29.531Z,92.06
2023-06-11T04:30:04.787Z,92.07
2023-06-11T04:32:41.654Z,91.97
2023-06-11T04:35:18.497Z,92.04
2023-06-11T04:37:54.114Z,91.12
2023-06-11T04:40:29.686Z,91.44
2023-06-11T04:43:04.049Z,91.12
2023-06-11T04:45:40.004Z,91.09
2023-06-11T04:48:22.741Z,90.98
2023-06-11T04:51:00.948Z,90.81
2023-06-11T04:53:38.557Z,91.12
2023-06-11T04:56:13.694Z,90.83
2023-06-11T04:58:48.307Z,91.03
2023-06-11T05:01:24.306Z,91.58
2023-06-11T05:03:59.059Z,90.89
2023-06-11T05:06:35.204Z,90.40
2023-06-11T05:09:10.637Z,89.71
2023-06-11T05:11:46.552Z,89.71
2023-06-11T05:14:21.179Z,88.51
2023-06-11T05:16:56.268Z,88.42
2023-06-11T05:19:30.878Z,87.69
2023-06-11T05:22:08.275Z,88.54
2023-06-11T05:24:44.253Z,87.60
2023-06-11T05:27:18.995Z,87.96
2023-06-11T05:29:53.612Z,87.27
2023-06-11T05:32:32.585Z,86.74
2023-06-11T05:35:08.540Z,86.67
2023-06-11T05:37:45.655Z,86.31
2023-06-11T05:40:20.299Z,85.87
2023-06-11T05:42:55.031Z,85.73
2023-06-11T05:45:29.649Z,84.94
2023-06-11T05:48:06.906Z,87.09
2023-06-11T05:50:41.911Z,86.88
2023-06-11T05:53:18.118Z,85.66
2023-06-11T05:55:55.452Z,85.25
2023-06-11T05:58:32.469Z,85.81
2023-06-11T06:03:02.387Z,84.30
2023-06-11T06:05:38.848Z,83.50
2023-06-11T06:08:13.934Z,82.32
2023-06-11T06:10:48.854Z,82.13
2023-06-11T06:13:24.266Z,81.22
2023-06-11T06:15:59.363Z,80.19
2023-06-11T06:18:38.384Z,81.94
2023-06-11T06:21:13.270Z,81.93
2023-06-11T06:23:47.721Z,80.21
2023-06-11T06:26:24.216Z,80.56
2023-06-11T06:28:58.899Z,80.89
2023-06-11T06:31:34.190Z,79.20
2023-06-11T06:34:11.816Z,78.63
2023-06-11T06:36:46.501Z,79.06
2023-06-11T06:39:21.524Z,78.96
2023-06-11T06:41:57.714Z,79.71
2023-06-11T06:44:39.092Z,80.44
2023-06-11T06:47:13.934Z,79.76
2023-06-11T06:49:49.842Z,78.88
2023-06-11T06:52:24.780Z,78.57
2023-06-11T06:54:59.152Z,78.35
2023-06-11T06:57:33.983Z,78.19
2023-06-11T07:00:11.188Z,78.16
2023-06-11T07:02:47.028Z,78.05
2023-06-11T07:05:23.037Z,78.90
2023-06-11T07:10:34.356Z,76.56
2023-06-11T07:13:11.403Z,74.99
2023-06-11T07:15:46.021Z,74.31
2023-06-11T07:18:20.816Z,75.19
2023-06-11T07:20:56.562Z,77.17
2023-06-11T07:23:31.651Z,75.39
2023-06-11T07:26:06.407Z,73.66
2023-06-11T07:28:42.375Z,74.31
2023-06-11T07:31:17.233Z,73.83
2023-06-11T07:33:52.085Z,73.80
2023-06-11T07:36:28.162Z,74.01
2023-06-11T07:39:03.218Z,72.62
2023-06-11T07:41:38.375Z,70.41
2023-06-11T07:44:14.085Z,71.11
2023-06-11T07:46:48.713Z,70.39
2023-06-11T07:49:23.975Z,71.45
2023-06-11T07:51:59.850Z,66.12
2023-06-11T07:54:34.735Z,67.31
2023-06-11T07:57:11.171Z,67.08
2023-06-11T07:59:46.003Z,67.49
2023-06-11T08:02:20.624Z,66.31
2023-06-11T08:04:55.387Z,66.87
2023-06-11T08:07:31.252Z,67.24
2023-06-11T08:10:07.097Z,64.68
2023-06-11T08:12:42.020Z,64.08
2023-06-11T08:15:17.045Z,63.19
2023-06-11T08:17:51.605Z,63.90
2023-06-11T08:20:26.980Z,64.32
2023-06-11T08:23:02.814Z,65.86
2023-06-11T08:25:38.163Z,66.05
2023-06-11T08:28:12.574Z,65.94
2023-06-11T08:30:47.326Z,63.85
2023-06-11T08:33:21.900Z,65.20
2023-06-11T08:35:56.939Z,65.41
2023-06-11T08:38:32.644Z,64.40
2023-06-11T08:41:07.452Z,64.40
2023-06-11T08:43:42.012Z,64.45
2023-06-11T08:46:17.329Z,64.98
2023-06-11T08:48:59.138Z,64.40
2023-06-11T08:51:38.339Z,64.28
2023-06-11T08:54:15.210Z,65.83
2023-06-11T08:56:50.607Z,66.12
2023-06-11T08:59:25.096Z,65.11
2023-06-11T09:01:59.937Z,65.38
2023-06-11T09:04:34.527Z,66.49
2023-06-11T09:07:09.889Z,66.11
2023-06-11T09:09:46.225Z,65.49
2023-06-11T09:12:20.919Z,65.03
2023-06-11T09:14:55.359Z,66.28
2023-06-11T09:17:36.250Z,65.44
2023-06-11T09:20:13.516Z,67.28
2023-06-11T09:22:51.913Z,65.26
2023-06-11T09:25:35.179Z,63.77
2023-06-11T09:28:11.233Z,65.34
2023-06-11T09:30:55.606Z,63.62
2023-06-11T09:33:32.154Z,65.00
2023-06-11T09:36:06.963Z,62.95
2023-06-11T09:38:41.667Z,63.35
2023-06-11T09:41:20.447Z,62.54
2023-06-11T09:43:56.167Z,62.98
2023-06-11T09:46:31.358Z,62.30
2023-06-11T09:49:06.746Z,62.67
2023-06-11T09:51:41.826Z,63.33
2023-06-11T09:54:17.042Z,64.91
2023-06-11T09:56:53.101Z,63.62
2023-06-11T09:59:29.003Z,62.23
2023-06-11T10:02:06.406Z,59.46
2023-06-11T10:04:41.895Z,61.46
2023-06-11T10:07:17.632Z,62.26
2023-06-11T10:09:55.811Z,62.14
2023-06-11T10:12:35.293Z,61.76
2023-06-11T10:15:14.030Z,62.06
2023-06-11T10:17:52.188Z,61.06
2023-06-11T10:20:29.322Z,63.05
2023-06-11T10:23:08.655Z,62.15
2023-06-11T10:25:44.065Z,60.14
2023-06-11T10:28:19.971Z,59.49
2023-06-11T10:30:55.422Z,60.79
2023-06-11T10:33:38.257Z,62.76
2023-06-11T10:36:24.317Z,61.94
2023-06-11T10:39:07.054Z,64.51
2023-06-11T10:41:42.914Z,62.24
2023-06-11T10:44:18.759Z,62.54
2023-06-11T10:46:55.289Z,62.95
2023-06-11T10:49:30.335Z,63.46
2023-06-11T10:52:06.439Z,62.79
2023-06-11T10:54:41.903Z,63.77
2023-06-11T10:57:16.873Z,64.18
2023-06-11T10:59:54.146Z,63.82
2023-06-11T11:02:29.489Z,64.00
2023-06-11T11:05:04.462Z,64.90
2023-06-11T11:07:39.437Z,64.96
2023-06-11T11:10:16.730Z,65.69
2023-06-11T11:12:51.478Z,65.88
2023-06-11T11:15:27.321Z,65.97
2023-06-11T11:18:02.073Z,64.08
2023-06-11T11:20:36.435Z,63.23
2023-06-11T11:23:11.136Z,62.70
2023-06-11T11:25:45.474Z,60.59
2023-06-11T11:28:20.251Z,58.67
2023-06-11T11:30:56.285Z,59.35
2023-06-11T11:33:31.138Z,58.84
2023-06-11T11:36:06.955Z,58.99
2023-06-11T11:38:41.734Z,57.21
2023-06-11T11:41:16.064Z,57.67
2023-06-11T11:43:51.757Z,56.38
2023-06-11T11:46:28.191Z,57.73
2023-06-11T11:49:03.413Z,58.53
2023-06-11T11:51:41.950Z,60.08
2023-06-11T11:54:16.711Z,61.31
2023-06-11T11:56:59.695Z,61.75
2023-06-11T11:59:39.694Z,62.96
2023-06-11T12:02:15.673Z,63.15
2023-06-11T12:04:52.556Z,71.38
2023-06-11T12:07:27.943Z,75.45
2023-06-11T12:10:03.943Z,78.34
2023-06-11T12:12:38.617Z,80.83
2023-06-11T12:15:14.754Z,80.78
2023-06-11T12:17:50.527Z,79.82
2023-06-11T12:20:25.180Z,81.12
2023-06-11T12:22:59.491Z,82.06
2023-06-11T12:25:34.683Z,80.97
2023-06-11T12:28:09.224Z,81.22
2023-06-11T12:30:44.434Z,82.04
2023-06-11T12:33:20.517Z,81.63
2023-06-11T12:35:55.216Z,82.00
2023-06-11T12:38:29.642Z,83.15
2023-06-11T12:41:04.535Z,84.18
2023-06-11T12:43:39.194Z,88.09
2023-06-11T12:46:14.048Z,89.00
2023-06-11T12:48:49.886Z,86.39
2023-06-11T12:51:24.754Z,87.56
2023-06-11T12:53:59.202Z,86.67
2023-06-11T12:56:33.858Z,87.33
2023-06-11T12:59:09.158Z,86.54
2023-06-11T13:01:43.963Z,87.88
2023-06-11T13:04:19.927Z,86.26
2023-06-11T13:06:54.649Z,85.92
2023-06-11T13:09:28.981Z,85.93
2023-06-11T13:12:03.800Z,83.04
2023-06-11T13:14:38.200Z,81.87
2023-06-11T13:17:12.985Z,79.48
2023-06-11T13:19:48.896Z,80.40
2023-06-11T13:22:23.644Z,83.34
2023-06-11T13:24:57.971Z,83.95
2023-06-11T13:27:33.090Z,80.37
2023-06-11T13:30:11.365Z,81.40
2023-06-11T13:32:46.943Z,79.98
2023-06-11T13:35:22.848Z,79.07
2023-06-11T13:37:57.616Z,78.83
2023-06-11T13:40:31.986Z,79.69
2023-06-11T13:43:06.781Z,79.09
2023-06-11T13:45:46.083Z,79.46
2023-06-11T13:48:22.074Z,79.17
2023-06-11T13:50:57.982Z,78.72
2023-06-11T13:53:32.690Z,78.29
2023-06-11T13:56:07.446Z,78.59
2023-06-11T13:58:42.458Z,78.50
2023-06-11T14:03:02.625Z,78.22
2023-06-11T14:05:38.126Z,78.22
2023-06-11T14:08:17.501Z,76.33
2023-06-11T14:10:54.115Z,78.41
2023-06-11T14:13:28.632Z,79.04
2023-06-11T14:16:03.474Z,77.29
2023-06-11T14:18:39.322Z,77.74
2023-06-11T14:21:14.088Z,77.05
2023-06-11T14:23:49.340Z,78.17
2023-06-11T14:26:24.379Z,78.70
2023-06-11T14:28:58.781Z,77.57
2023-06-11T14:31:33.493Z,77.47
2023-06-11T14:34:09.352Z,78.26
2023-06-11T14:36:44.074Z,78.89
2023-06-11T14:39:19.003Z,79.08
2023-06-11T14:41:53.923Z,79.80
2023-06-11T14:44:28.694Z,79.74
2023-06-11T14:47:03.427Z,80.51
2023-06-11T14:49:39.568Z,80.92
2023-06-11T14:52:14.320Z,79.93
2023-06-11T14:54:48.586Z,80.54
2023-06-11T14:57:25.931Z,80.83
2023-06-11T15:00:05.296Z,81.52
2023-06-11T15:02:40.330Z,81.58
2023-06-11T15:05:16.100Z,81.61
2023-06-11T15:07:50.818Z,81.37
2023-06-11T15:10:25.456Z,81.51
2023-06-11T15:13:00.123Z,81.97
2023-06-11T15:15:34.578Z,81.21
2023-06-11T15:18:09.802Z,81.02
2023-06-11T15:20:45.598Z,80.76
2023-06-11T15:23:20.270Z,81.65
2023-06-11T15:25:54.728Z,80.94
2023-06-11T15:28:29.603Z,81.65
2023-06-11T15:31:04.270Z,79.27
2023-06-11T15:33:39.298Z,76.45
2023-06-11T15:36:15.120Z,73.26
2023-06-11T15:38:49.767Z,74.74
2023-06-11T15:41:24.234Z,75.18
2023-06-11T15:44:01.382Z,74.66
2023-06-11T15:46:35.933Z,73.92
2023-06-11T15:49:10.760Z,74.86
2023-06-11T15:51:48.894Z,74.48
2023-06-11T15:54:24.063Z,73.92
2023-06-11T15:56:58.491Z,73.88
2023-06-11T15:59:33.642Z,73.91
2023-06-11T16:02:08.496Z,74.63
2023-06-11T16:04:44.521Z,74.35
2023-06-11T16:07:22.399Z,74.36
2023-06-11T16:09:57.076Z,74.58
2023-06-11T16:12:31.387Z,74.78
2023-06-11T16:15:07.483Z,74.80
2023-06-11T16:17:42.161Z,75.29
2023-06-11T16:20:17.418Z,76.07
2023-06-11T16:22:53.443Z,77.53
2023-06-11T16:25:28.163Z,78.12
2023-06-11T16:30:36.928Z,79.63
2023-06-11T16:33:11.408Z,80.16
2023-06-11T16:35:46.151Z,81.11
2023-06-11T16:38:21.959Z,82.75
2023-06-11T16:40:56.766Z,83.90
2023-06-11T16:43:31.165Z,84.61
2023-06-11T16:46:05.940Z,83.53
2023-06-11T16:48:40.708Z,84.08
2023-06-11T16:51:16.107Z,83.76
2023-06-11T16:53:51.990Z,85.78
2023-06-11T16:56:26.698Z,85.76
2023-06-11T16:59:01.076Z,83.12
2023-06-11T17:01:35.799Z,80.98
2023-06-11T17:04:10.502Z,80.37
2023-06-11T17:06:45.578Z,82.53
2023-06-11T17:09:22.234Z,85.67
2023-06-11T17:11:56.950Z,88.08
2023-06-11T17:14:31.332Z,88.60
2023-06-11T17:17:06.517Z,87.48
2023-06-11T17:19:46.028Z,88.13
2023-06-11T17:22:20.874Z,86.93
2023-06-11T17:24:56.731Z,87.17
2023-06-11T17:27:31.858Z,86.20
2023-06-11T17:30:07.711Z,85.34
2023-06-11T17:32:42.547Z,85.74
2023-06-11T17:35:17.117Z,86.94
2023-06-11T17:37:52.754Z,87.34
2023-06-11T17:40:29.086Z,87.32
2023-06-11T17:43:03.857Z,87.67
2023-06-11T17:45:38.255Z,87.89
2023-06-11T17:48:13.107Z,87.11
2023-06-11T17:50:47.634Z,87.54
2023-06-11T17:53:22.373Z,88.01
2023-06-11T17:55:58.180Z,88.12
2023-06-11T17:58:32.964Z,88.13
2023-06-11T18:01:07.370Z,88.01
2023-06-11T18:03:42.029Z,88.31
2023-06-11T18:06:18.554Z,87.35
2023-06-11T18:08:53.738Z,87.14
2023-06-11T18:11:29.655Z,85.83
2023-06-11T18:14:04.436Z,86.17
2023-06-11T18:16:39.325Z,85.49
2023-06-11T18:19:14.294Z,83.34
2023-06-11T18:21:48.762Z,82.04
2023-06-11T18:24:23.667Z,81.85
2023-06-11T18:26:59.634Z,81.41
2023-06-11T18:29:34.667Z,80.99
2023-06-11T18:32:10.215Z,81.87
2023-06-11T18:34:47.381Z,80.09
2023-06-11T18:37:22.202Z,79.47
2023-06-11T18:39:56.960Z,79.44
2023-06-11T18:42:32.842Z,78.40
2023-06-11T18:45:08.983Z,78.88
2023-06-11T18:47:43.475Z,79.87
2023-06-11T18:50:18.506Z,77.78
2023-06-11T18:52:52.899Z,77.43
2023-06-11T18:55:30.710Z,76.87
2023-06-11T18:58:07.257Z,76.66
2023-06-11T19:00:42.272Z,77.10
2023-06-11T19:03:17.710Z,76.89
2023-06-11T19:05:52.788Z,77.43
2023-06-11T19:09:01.612Z,76.42
2023-06-11T20:58:58.401Z,83.25
2023-06-11T21:01:33.440Z,83.25
2023-06-11T21:04:07.971Z,75.85
2023-06-11T21:06:43.756Z,75.76
2023-06-11T21:09:18.251Z,75.82
2023-06-11T21:11:56.231Z,75.74
2023-06-11T21:14:32.085Z,83.77
2023-06-11T21:17:07.413Z,84.37
2023-06-11T21:19:41.931Z,83.34
2023-06-11T21:22:16.720Z,76.48
2023-06-11T21:24:51.094Z,75.71
2023-06-11T21:27:25.846Z,73.48
2023-06-11T21:30:01.628Z,75.13
2023-06-11T21:32:36.549Z,76.03
2023-06-11T21:35:11.401Z,76.05
2023-06-11T21:37:46.099Z,76.95
2023-06-11T21:40:20.823Z,76.67
2023-06-11T21:42:55.479Z,76.53
2023-06-11T22:03:18.190Z,76.69
2023-06-11T22:05:54.793Z,76.69
2023-06-11T22:08:29.211Z,77.70
2023-06-11T22:11:03.922Z,78.87
2023-06-11T22:13:38.268Z,78.76
2023-06-11T22:16:14.208Z,79.02
2023-06-11T22:18:53.333Z,79.91
2023-06-11T22:21:28.901Z,80.12
2023-06-11T22:24:03.631Z,80.12
2023-06-11T22:26:38.306Z,79.88
2023-06-11T22:29:12.706Z,78.48
2023-06-11T22:31:47.399Z,77.56
2023-06-11T22:34:23.226Z,76.55
2023-06-11T22:36:57.812Z,76.48
2023-06-11T22:39:32.096Z,76.43
2023-06-11T22:42:07.445Z,77.22
2023-06-11T22:44:41.997Z,75.62
2023-06-11T22:47:17.623Z,75.92
2023-06-11T22:49:53.355Z,76.52
2023-06-11T22:52:30.115Z,77.62
2023-06-11T22:55:04.523Z,77.49
2023-06-11T22:57:39.201Z,77.46
2023-06-11T23:00:14.792Z,77.64
2023-06-11T23:02:49.701Z,77.74
2023-06-11T23:05:25.522Z,76.89
2023-06-11T23:08:01.101Z,77.49
2023-06-11T23:10:35.406Z,76.80
2023-06-11T23:13:10.044Z,76.03
2023-06-11T23:15:44.392Z,77.12
2023-06-11T23:18:19.205Z,76.78
2023-06-11T23:20:55.054Z,77.79
2023-06-11T23:23:33.613Z,75.82
2023-06-11T23:26:10.862Z,76.79
2023-06-11T23:28:46.032Z,77.03
2023-06-11T23:31:22.104Z,76.31
2023-06-11T23:33:56.932Z,75.73
2023-06-11T23:36:32.714Z,76.20
2023-06-11T23:39:07.799Z,76.36
2023-06-11T23:41:42.709Z,76.48
2023-06-11T23:44:17.346Z,76.06
2023-06-11T23:46:52.808Z,76.59
2023-06-11T23:49:27.484Z,76.08
2023-06-11T23:52:03.432Z,76.16
2023-06-11T23:54:38.075Z,76.13
2023-06-11T23:57:12.546Z,76.48
2023-06-11T23:59:49.020Z,76.71
